sensor_id;sensor_type;location;lat;lon;timestamp;P1;durP1;ratioP1;P2;durP2;ratioP2
76846;SDS011;65813;49.546;8.644;2023-01-28T05:19:05;4.10;;;2.40;;
76846;SDS011;65813;49.546;8.644;2023-01-28T05:23:05;2.80;;;1.50;;
76846;SDS011;65813;49.546;8.644;2023-01-28T05:27:06;4.87;;;2.10;;
76846;SDS011;65813;49.546;8.644;2023-01-28T05:31:06;3.07;;;1.80;;
76846;SDS011;65813;49.546;8.644;2023-01-28T05:35:07;3.97;;;2.20;;
76846;SDS011;65813;49.546;8.644;2023-01-28T05:39:07;3.22;;;1.77;;
76846;SDS011;65813;49.546;8.644;2023-01-28T05:43:08;3.43;;;1.80;;
76846;SDS011;65813;49.546;8.644;2023-01-28T05:47:08;4.83;;;2.00;;
76846;SDS011;65813;49.546;8.644;2023-01-28T05:51:08;3.27;;;1.93;;
76846;SDS011;65813;49.546;8.644;2023-01-28T05:55:09;3.80;;;2.13;;
76846;SDS011;65813;49.546;8.644;2023-01-28T05:59:10;4.13;;;2.47;;
76846;SDS011;65813;49.546;8.644;2023-01-28T06:03:11;4.50;;;2.20;;
76846;SDS011;65813;49.546;8.644;2023-01-28T06:07:11;4.80;;;1.83;;
76846;SDS011;65813;49.546;8.644;2023-01-28T06:11:12;3.53;;;2.10;;
76846;SDS011;65813;49.546;8.644;2023-01-28T06:15:12;3.03;;;1.70;;
76846;SDS011;65813;49.546;8.644;2023-01-28T06:19:13;3.20;;;1.80;;
76846;SDS011;65813;49.546;8.644;2023-01-28T06:23:13;3.07;;;1.53;;
76846;SDS011;65813;49.546;8.644;2023-01-28T06:27:13;3.67;;;1.90;;
76846;SDS011;65813;49.546;8.644;2023-01-28T06:31:14;4.40;;;2.50;;
76846;SDS011;65813;49.546;8.644;2023-01-28T06:35:14;5.27;;;2.10;;
76846;SDS011;65813;49.546;8.644;2023-01-28T06:39:14;3.35;;;2.03;;
76846;SDS011;65813;49.546;8.644;2023-01-28T06:43:15;4.93;;;2.40;;
76846;SDS011;65813;49.546;8.644;2023-01-28T06:47:15;4.33;;;2.03;;
76846;SDS011;65813;49.546;8.644;2023-01-28T06:51:15;3.57;;;2.03;;
76846;SDS011;65813;49.546;8.644;2023-01-28T06:55:16;3.40;;;2.40;;
76846;SDS011;65813;49.546;8.644;2023-01-28T06:59:16;3.43;;;2.43;;
76846;SDS011;65813;49.546;8.644;2023-01-28T07:03:16;4.10;;;2.07;;
76846;SDS011;65813;49.546;8.644;2023-01-28T07:07:17;4.17;;;2.47;;
76846;SDS011;65813;49.546;8.644;2023-01-28T07:11:17;4.90;;;2.50;;
76846;SDS011;65813;49.546;8.644;2023-01-28T07:15:17;5.37;;;2.40;;
76846;SDS011;65813;49.546;8.644;2023-01-28T07:19:18;4.35;;;2.42;;
76846;SDS011;65813;49.546;8.644;2023-01-28T07:23:18;5.20;;;2.70;;
76846;SDS011;65813;49.546;8.644;2023-01-28T07:27:18;4.40;;;2.20;;
76846;SDS011;65813;49.546;8.644;2023-01-28T07:31:19;4.53;;;2.57;;
76846;SDS011;65813;49.546;8.644;2023-01-28T07:35:19;4.27;;;2.53;;
76846;SDS011;65813;49.546;8.644;2023-01-28T07:39:20;3.47;;;2.33;;
76846;SDS011;65813;49.546;8.644;2023-01-28T07:43:20;4.97;;;2.10;;
76846;SDS011;65813;49.546;8.644;2023-01-28T07:47:21;5.38;;;2.72;;
76846;SDS011;65813;49.546;8.644;2023-01-28T07:51:21;3.97;;;2.50;;
76846;SDS011;65813;49.546;8.644;2023-01-28T07:55:22;3.90;;;2.50;;
76846;SDS011;65813;49.546;8.644;2023-01-28T07:59:22;4.35;;;2.85;;
76846;SDS011;65813;49.546;8.644;2023-01-28T08:03:22;5.43;;;2.90;;
76846;SDS011;65813;49.546;8.644;2023-01-28T08:07:23;6.03;;;3.05;;
76846;SDS011;65813;49.546;8.644;2023-01-28T08:11:23;4.90;;;2.63;;
76846;SDS011;65813;49.546;8.644;2023-01-28T08:15:24;6.17;;;3.67;;
76846;SDS011;65813;49.546;8.644;2023-01-28T08:19:24;4.68;;;2.55;;
76846;SDS011;65813;49.546;8.644;2023-01-28T08:23:25;4.30;;;2.50;;
76846;SDS011;65813;49.546;8.644;2023-01-28T08:27:26;4.18;;;2.50;;
76846;SDS011;65813;49.546;8.644;2023-01-28T08:31:26;5.38;;;3.10;;
76846;SDS011;65813;49.546;8.644;2023-01-28T08:35:28;5.57;;;3.00;;
76846;SDS011;65813;49.546;8.644;2023-01-28T08:39:28;5.97;;;3.28;;
76846;SDS011;65813;49.546;8.644;2023-01-28T08:43:29;4.60;;;2.40;;
76846;SDS011;65813;49.546;8.644;2023-01-28T08:47:29;5.33;;;2.60;;
76846;SDS011;65813;49.546;8.644;2023-01-28T08:51:29;7.17;;;3.40;;
76846;SDS011;65813;49.546;8.644;2023-01-28T08:55:30;4.85;;;3.00;;
76846;SDS011;65813;49.546;8.644;2023-01-28T08:59:32;4.90;;;2.88;;
76846;SDS011;65813;49.546;8.644;2023-01-28T09:03:32;4.13;;;2.63;;
76846;SDS011;65813;49.546;8.644;2023-01-28T09:07:33;6.13;;;3.50;;
76846;SDS011;65813;49.546;8.644;2023-01-28T09:11:34;5.25;;;2.92;;
76846;SDS011;65813;49.546;8.644;2023-01-28T09:15:35;5.67;;;3.57;;
76846;SDS011;65813;49.546;8.644;2023-01-28T09:19:35;5.20;;;3.20;;
76846;SDS011;65813;49.546;8.644;2023-01-28T09:23:36;5.10;;;2.63;;
76846;SDS011;65813;49.546;8.644;2023-01-28T09:27:37;4.53;;;2.90;;
76846;SDS011;65813;49.546;8.644;2023-01-28T09:31:38;5.10;;;2.97;;
76846;SDS011;65813;49.546;8.644;2023-01-28T09:35:39;6.80;;;3.33;;
76846;SDS011;65813;49.546;8.644;2023-01-28T09:39:39;6.03;;;2.77;;
76846;SDS011;65813;49.546;8.644;2023-01-28T09:43:55;4.30;;;2.80;;
76846;SDS011;65813;49.546;8.644;2023-01-28T09:48:07;4.57;;;2.40;;
76846;SDS011;65813;49.546;8.644;2023-01-28T09:52:14;5.60;;;2.80;;
76846;SDS011;65813;49.546;8.644;2023-01-28T09:56:24;7.70;;;3.22;;
76846;SDS011;65813;49.546;8.644;2023-01-28T10:00:29;5.53;;;2.90;;
76846;SDS011;65813;49.546;8.644;2023-01-28T10:08:51;4.30;;;2.60;;
76846;SDS011;65813;49.546;8.644;2023-01-28T10:13:07;7.22;;;3.35;;
76846;SDS011;65813;49.546;8.644;2023-01-28T10:17:21;5.55;;;2.92;;
76846;SDS011;65813;49.546;8.644;2023-01-28T10:22:06;4.78;;;2.83;;
76846;SDS011;65813;49.546;8.644;2023-01-28T10:25:53;3.88;;;2.50;;
76846;SDS011;65813;49.546;8.644;2023-01-28T10:29:58;5.20;;;2.95;;
76846;SDS011;65813;49.546;8.644;2023-01-28T10:34:09;4.53;;;2.75;;
76846;SDS011;65813;49.546;8.644;2023-01-28T10:38:12;5.70;;;3.00;;
76846;SDS011;65813;49.546;8.644;2023-01-28T10:42:19;6.72;;;2.70;;
76846;SDS011;65813;49.546;8.644;2023-01-28T10:46:28;5.63;;;3.63;;
76846;SDS011;65813;49.546;8.644;2023-01-28T10:50:31;5.38;;;3.20;;
76846;SDS011;65813;49.546;8.644;2023-01-28T10:54:32;5.05;;;2.83;;
76846;SDS011;65813;49.546;8.644;2023-01-28T10:58:33;5.23;;;2.80;;
76846;SDS011;65813;49.546;8.644;2023-01-28T11:02:35;4.63;;;2.42;;
76846;SDS011;65813;49.546;8.644;2023-01-28T11:06:36;4.22;;;2.33;;
76846;SDS011;65813;49.546;8.644;2023-01-28T11:10:36;4.93;;;2.53;;
76846;SDS011;65813;49.546;8.644;2023-01-28T11:14:37;5.82;;;3.22;;
76846;SDS011;65813;49.546;8.644;2023-01-28T11:18:38;5.63;;;2.67;;
76846;SDS011;65813;49.546;8.644;2023-01-28T11:22:45;5.57;;;3.05;;
76846;SDS011;65813;49.546;8.644;2023-01-28T11:26:47;7.60;;;2.65;;
76846;SDS011;65813;49.546;8.644;2023-01-28T11:30:51;5.13;;;2.45;;
76846;SDS011;65813;49.546;8.644;2023-01-28T11:34:55;5.32;;;2.90;;
76846;SDS011;65813;49.546;8.644;2023-01-28T11:38:57;5.10;;;2.40;;
76846;SDS011;65813;49.546;8.644;2023-01-28T11:42:59;4.38;;;2.28;;
76846;SDS011;65813;49.546;8.644;2023-01-28T12:08:33;5.50;;;2.70;;
76846;SDS011;65813;49.546;8.644;2023-01-28T12:17:09;3.78;;;2.28;;
76846;SDS011;65813;49.546;8.644;2023-01-28T12:25:47;4.40;;;1.92;;
76846;SDS011;65813;49.546;8.644;2023-01-28T12:43:09;3.30;;;2.00;;
76846;SDS011;65813;49.546;8.644;2023-01-28T12:47:16;4.15;;;1.80;;
76846;SDS011;65813;49.546;8.644;2023-01-28T12:55:59;3.40;;;2.05;;
76846;SDS011;65813;49.546;8.644;2023-01-28T13:00:27;3.58;;;1.98;;
76846;SDS011;65813;49.546;8.644;2023-01-28T13:04:53;3.90;;;1.95;;
76846;SDS011;65813;49.546;8.644;2023-01-28T13:09:02;3.33;;;1.75;;
76846;SDS011;65813;49.546;8.644;2023-01-28T13:13:32;3.97;;;2.13;;
76846;SDS011;65813;49.546;8.644;2023-01-28T13:17:35;4.13;;;2.05;;
76846;SDS011;65813;49.546;8.644;2023-01-28T13:21:35;3.20;;;1.77;;
76846;SDS011;65813;49.546;8.644;2023-01-28T13:25:46;4.28;;;2.22;;
76846;SDS011;65813;49.546;8.644;2023-01-28T13:29:58;4.28;;;1.95;;
76846;SDS011;65813;49.546;8.644;2023-01-28T13:34:06;3.67;;;1.92;;
76846;SDS011;65813;49.546;8.644;2023-01-28T13:38:09;3.05;;;1.48;;
76846;SDS011;65813;49.546;8.644;2023-01-28T13:42:20;3.90;;;2.20;;
76846;SDS011;65813;49.546;8.644;2023-01-28T13:46:27;3.95;;;2.10;;
76846;SDS011;65813;49.546;8.644;2023-01-28T13:59:33;3.55;;;1.90;;
76846;SDS011;65813;49.546;8.644;2023-01-28T14:08:31;4.18;;;2.10;;
76846;SDS011;65813;49.546;8.644;2023-01-28T14:16:54;4.85;;;2.20;;
76846;SDS011;65813;49.546;8.644;2023-01-28T14:21:00;4.47;;;2.60;;
76846;SDS011;65813;49.546;8.644;2023-01-28T14:25:01;4.40;;;2.40;;
76846;SDS011;65813;49.546;8.644;2023-01-28T14:33:26;4.72;;;2.33;;
76846;SDS011;65813;49.546;8.644;2023-01-28T14:37:27;4.67;;;2.43;;
76846;SDS011;65813;49.546;8.644;2023-01-28T14:41:31;3.88;;;2.42;;
76846;SDS011;65813;49.546;8.644;2023-01-28T14:49:54;4.30;;;2.45;;
76846;SDS011;65813;49.546;8.644;2023-01-28T14:54:22;3.33;;;2.05;;
76846;SDS011;65813;49.546;8.644;2023-01-28T14:58:31;4.45;;;2.53;;
76846;SDS011;65813;49.546;8.644;2023-01-28T15:02:41;3.95;;;2.38;;
76846;SDS011;65813;49.546;8.644;2023-01-28T15:06:43;4.93;;;3.00;;
76846;SDS011;65813;49.546;8.644;2023-01-28T15:10:43;4.50;;;2.50;;
76846;SDS011;65813;49.546;8.644;2023-01-28T15:14:43;7.38;;;3.42;;
76846;SDS011;65813;49.546;8.644;2023-01-28T15:18:44;4.18;;;2.58;;
76846;SDS011;65813;49.546;8.644;2023-01-28T15:22:47;4.05;;;2.67;;
76846;SDS011;65813;49.546;8.644;2023-01-28T15:26:48;4.60;;;2.58;;
76846;SDS011;65813;49.546;8.644;2023-01-28T15:30:48;6.05;;;2.67;;
76846;SDS011;65813;49.546;8.644;2023-01-28T15:34:48;4.57;;;2.87;;
76846;SDS011;65813;49.546;8.644;2023-01-28T15:38:49;4.43;;;2.87;;
76846;SDS011;65813;49.546;8.644;2023-01-28T15:42:49;5.13;;;3.00;;
76846;SDS011;65813;49.546;8.644;2023-01-28T15:46:51;5.32;;;3.05;;
76846;SDS011;65813;49.546;8.644;2023-01-28T15:54:59;3.60;;;2.38;;
76846;SDS011;65813;49.546;8.644;2023-01-28T15:59:34;5.90;;;2.50;;
76846;SDS011;65813;49.546;8.644;2023-01-28T16:03:33;4.78;;;2.55;;
76846;SDS011;65813;49.546;8.644;2023-01-28T16:07:42;4.57;;;2.40;;
76846;SDS011;65813;49.546;8.644;2023-01-28T16:11:44;4.78;;;2.50;;
76846;SDS011;65813;49.546;8.644;2023-01-28T16:15:45;3.85;;;2.35;;
76846;SDS011;65813;49.546;8.644;2023-01-28T16:19:54;3.90;;;2.55;;
76846;SDS011;65813;49.546;8.644;2023-01-28T16:24:21;4.88;;;2.75;;
76846;SDS011;65813;49.546;8.644;2023-01-28T16:28:23;4.05;;;2.22;;
76846;SDS011;65813;49.546;8.644;2023-01-28T16:32:28;5.07;;;2.60;;
76846;SDS011;65813;49.546;8.644;2023-01-28T16:36:28;5.85;;;2.90;;
76846;SDS011;65813;49.546;8.644;2023-01-28T16:40:29;4.63;;;3.00;;
76846;SDS011;65813;49.546;8.644;2023-01-28T16:44:31;4.63;;;2.50;;
76846;SDS011;65813;49.546;8.644;2023-01-28T16:48:31;3.97;;;2.17;;
76846;SDS011;65813;49.546;8.644;2023-01-28T16:52:31;4.50;;;2.63;;
76846;SDS011;65813;49.546;8.644;2023-01-28T16:56:32;4.70;;;2.73;;
76846;SDS011;65813;49.546;8.644;2023-01-28T17:00:33;5.53;;;2.50;;
76846;SDS011;65813;49.546;8.644;2023-01-28T17:04:35;6.63;;;3.40;;
76846;SDS011;65813;49.546;8.644;2023-01-28T17:08:35;4.47;;;2.70;;
76846;SDS011;65813;49.546;8.644;2023-01-28T17:12:36;4.80;;;2.83;;
76846;SDS011;65813;49.546;8.644;2023-01-28T17:16:36;4.73;;;2.90;;
76846;SDS011;65813;49.546;8.644;2023-01-28T17:20:37;4.93;;;2.90;;
76846;SDS011;65813;49.546;8.644;2023-01-28T17:24:39;4.53;;;3.08;;
76846;SDS011;65813;49.546;8.644;2023-01-28T17:28:40;3.83;;;2.60;;
76846;SDS011;65813;49.546;8.644;2023-01-28T17:32:41;5.45;;;2.90;;
76846;SDS011;65813;49.546;8.644;2023-01-28T17:36:41;4.80;;;2.93;;
76846;SDS011;65813;49.546;8.644;2023-01-28T17:40:41;6.40;;;3.33;;
76846;SDS011;65813;49.546;8.644;2023-01-28T17:44:42;5.25;;;3.05;;
76846;SDS011;65813;49.546;8.644;2023-01-28T17:48:42;4.30;;;3.07;;
76846;SDS011;65813;49.546;8.644;2023-01-28T17:52:45;5.05;;;2.88;;
76846;SDS011;65813;49.546;8.644;2023-01-28T17:56:46;6.13;;;2.47;;
76846;SDS011;65813;49.546;8.644;2023-01-28T18:00:46;4.37;;;2.60;;
76846;SDS011;65813;49.546;8.644;2023-01-28T18:04:46;4.50;;;3.03;;
76846;SDS011;65813;49.546;8.644;2023-01-28T18:08:47;5.17;;;3.10;;
76846;SDS011;65813;49.546;8.644;2023-01-28T18:12:47;4.97;;;2.85;;
76846;SDS011;65813;49.546;8.644;2023-01-28T18:16:47;4.73;;;2.60;;
76846;SDS011;65813;49.546;8.644;2023-01-28T18:21:01;4.60;;;2.77;;
76846;SDS011;65813;49.546;8.644;2023-01-28T18:25:03;4.88;;;2.65;;
76846;SDS011;65813;49.546;8.644;2023-01-28T18:29:04;4.80;;;2.88;;
76846;SDS011;65813;49.546;8.644;2023-01-28T18:33:04;6.22;;;3.55;;
76846;SDS011;65813;49.546;8.644;2023-01-28T18:37:05;5.27;;;3.43;;
76846;SDS011;65813;49.546;8.644;2023-01-28T18:41:07;6.45;;;3.20;;
76846;SDS011;65813;49.546;8.644;2023-01-28T18:45:07;6.07;;;4.10;;
76846;SDS011;65813;49.546;8.644;2023-01-28T18:49:08;4.95;;;3.00;;
76846;SDS011;65813;49.546;8.644;2023-01-28T18:53:08;7.03;;;3.77;;
76846;SDS011;65813;49.546;8.644;2023-01-28T18:57:09;5.73;;;3.43;;
76846;SDS011;65813;49.546;8.644;2023-01-28T19:01:11;6.30;;;3.90;;
76846;SDS011;65813;49.546;8.644;2023-01-28T19:05:12;8.27;;;4.15;;
76846;SDS011;65813;49.546;8.644;2023-01-28T19:09:12;6.90;;;3.47;;
76846;SDS011;65813;49.546;8.644;2023-01-28T19:13:14;5.85;;;3.55;;
76846;SDS011;65813;49.546;8.644;2023-01-28T19:17:14;5.53;;;3.67;;
76846;SDS011;65813;49.546;8.644;2023-01-28T19:21:14;6.00;;;3.40;;
76846;SDS011;65813;49.546;8.644;2023-01-28T19:25:15;5.37;;;3.70;;
76846;SDS011;65813;49.546;8.644;2023-01-28T19:29:16;4.95;;;3.00;;
76846;SDS011;65813;49.546;8.644;2023-01-28T19:33:17;5.82;;;3.38;;
76846;SDS011;65813;49.546;8.644;2023-01-28T19:37:17;7.50;;;3.23;;
76846;SDS011;65813;49.546;8.644;2023-01-28T19:41:17;5.60;;;3.20;;
76846;SDS011;65813;49.546;8.644;2023-01-28T19:45:18;5.40;;;2.97;;
76846;SDS011;65813;49.546;8.644;2023-01-28T19:49:19;5.30;;;3.35;;
76846;SDS011;65813;49.546;8.644;2023-01-28T19:53:19;5.00;;;3.33;;
76846;SDS011;65813;49.546;8.644;2023-01-28T19:57:20;4.47;;;2.85;;
76846;SDS011;65813;49.546;8.644;2023-01-28T20:01:21;7.10;;;3.20;;
76846;SDS011;65813;49.546;8.644;2023-01-28T20:05:23;6.13;;;3.38;;
76846;SDS011;65813;49.546;8.644;2023-01-28T20:09:23;4.50;;;3.00;;
76846;SDS011;65813;49.546;8.644;2023-01-28T20:13:24;5.17;;;3.30;;
76846;SDS011;65813;49.546;8.644;2023-01-28T20:17:24;5.43;;;3.50;;
76846;SDS011;65813;49.546;8.644;2023-01-28T20:21:27;5.38;;;3.28;;
76846;SDS011;65813;49.546;8.644;2023-01-28T20:25:28;6.00;;;3.92;;
76846;SDS011;65813;49.546;8.644;2023-01-28T20:29:29;5.83;;;3.50;;
76846;SDS011;65813;49.546;8.644;2023-01-28T20:33:29;6.43;;;3.57;;
76846;SDS011;65813;49.546;8.644;2023-01-28T20:37:29;5.68;;;3.10;;
76846;SDS011;65813;49.546;8.644;2023-01-28T20:41:30;6.00;;;3.57;;
76846;SDS011;65813;49.546;8.644;2023-01-28T20:45:30;6.23;;;3.17;;
76846;SDS011;65813;49.546;8.644;2023-01-28T20:49:31;5.80;;;3.50;;
76846;SDS011;65813;49.546;8.644;2023-01-28T20:53:31;6.63;;;3.80;;
76846;SDS011;65813;49.546;8.644;2023-01-28T20:57:32;5.18;;;3.25;;
76846;SDS011;65813;49.546;8.644;2023-01-28T21:01:33;4.88;;;3.17;;
76846;SDS011;65813;49.546;8.644;2023-01-28T21:05:34;5.30;;;3.20;;
76846;SDS011;65813;49.546;8.644;2023-01-28T21:09:35;5.93;;;3.53;;
76846;SDS011;65813;49.546;8.644;2023-01-28T21:13:35;5.67;;;3.23;;
76846;SDS011;65813;49.546;8.644;2023-01-28T21:17:36;5.13;;;3.05;;
76846;SDS011;65813;49.546;8.644;2023-01-28T21:21:36;4.93;;;3.23;;
76846;SDS011;65813;49.546;8.644;2023-01-28T21:25:36;6.53;;;3.45;;
76846;SDS011;65813;49.546;8.644;2023-01-28T21:29:37;5.47;;;3.10;;
76846;SDS011;65813;49.546;8.644;2023-01-28T21:33:37;6.50;;;4.20;;
76846;SDS011;65813;49.546;8.644;2023-01-28T21:37:37;5.67;;;3.60;;
76846;SDS011;65813;49.546;8.644;2023-01-28T21:41:38;7.83;;;4.20;;
76846;SDS011;65813;49.546;8.644;2023-01-28T21:45:38;7.13;;;3.53;;
76846;SDS011;65813;49.546;8.644;2023-01-28T21:49:39;5.20;;;3.50;;
76846;SDS011;65813;49.546;8.644;2023-01-28T21:53:39;6.07;;;3.47;;
76846;SDS011;65813;49.546;8.644;2023-01-28T21:57:40;6.93;;;4.00;;
76846;SDS011;65813;49.546;8.644;2023-01-28T22:01:44;6.93;;;3.73;;
76846;SDS011;65813;49.546;8.644;2023-01-28T22:05:52;6.38;;;3.17;;
76846;SDS011;65813;49.546;8.644;2023-01-28T22:09:55;7.28;;;4.68;;
76846;SDS011;65813;49.546;8.644;2023-01-28T22:13:56;5.37;;;3.70;;
